createdAt,value
2018-12-18T00:00:38.007Z,1.41
2018-12-18T00:03:06.441Z,1.35
2018-12-18T00:05:35.048Z,1.35
2018-12-18T00:08:04.939Z,1.33
2018-12-18T00:10:38.678Z,1.33
2018-12-18T00:13:07.113Z,1.31
2018-12-18T00:15:35.719Z,1.41
2018-12-18T00:18:04.336Z,1.47
2018-12-18T00:20:32.828Z,1.46
2018-12-18T00:23:01.324Z,1.40
2018-12-18T00:25:29.795Z,1.37
2018-12-18T00:27:58.801Z,1.34
2018-12-18T00:30:27.266Z,1.37
2018-12-18T00:32:55.704Z,1.38
2018-12-18T00:35:24.128Z,1.42
2018-12-18T00:37:52.578Z,1.51
2018-12-18T00:40:21.023Z,1.55
2018-12-18T00:42:49.492Z,1.60
2018-12-18T00:45:18.044Z,1.60
2018-12-18T00:47:46.514Z,1.55
2018-12-18T00:50:15.375Z,1.58
2018-12-18T00:52:43.831Z,1.55
2018-12-18T00:55:12.321Z,1.52
2018-12-18T00:57:40.815Z,1.48
2018-12-18T01:00:09.865Z,1.44
2018-12-18T01:02:38.352Z,1.39
2018-12-18T01:05:07.007Z,1.35
2018-12-18T01:07:35.468Z,1.37
2018-12-18T01:10:04.152Z,1.44
2018-12-18T01:12:32.627Z,1.48
2018-12-18T01:15:01.074Z,1.55
2018-12-18T01:17:29.564Z,1.56
2018-12-18T01:19:57.997Z,1.51
2018-12-18T01:22:26.457Z,1.52
2018-12-18T01:24:54.908Z,1.60
2018-12-18T01:27:23.379Z,1.74
2018-12-18T01:29:51.783Z,1.79
2018-12-18T01:32:20.238Z,1.81
2018-12-18T01:34:48.668Z,1.70
2018-12-18T01:37:17.164Z,1.59
2018-12-18T01:39:45.601Z,1.56
2018-12-18T01:42:14.066Z,1.55
2018-12-18T01:44:42.491Z,1.60
2018-12-18T01:47:10.963Z,1.63
2018-12-18T01:49:39.419Z,1.65
2018-12-18T01:52:08.012Z,1.65
2018-12-18T01:54:36.455Z,1.60
2018-12-18T01:57:04.960Z,1.55
2018-12-18T01:59:33.384Z,1.46
2018-12-18T02:02:01.838Z,1.37
2018-12-18T02:04:30.360Z,1.30
2018-12-18T02:06:58.827Z,1.25
2018-12-18T02:09:27.391Z,1.23
2018-12-18T02:11:55.856Z,1.21
2018-12-18T02:14:24.330Z,1.22
2018-12-18T02:16:52.783Z,1.21
2018-12-18T02:19:21.237Z,1.27
2018-12-18T02:21:49.708Z,1.34
2018-12-18T02:24:18.148Z,1.41
2018-12-18T02:26:46.590Z,1.43
2018-12-18T02:29:15.041Z,1.47
2018-12-18T02:31:43.521Z,1.46
2018-12-18T02:34:13.931Z,1.42
2018-12-18T02:36:42.423Z,1.45
2018-12-18T02:39:10.855Z,1.45
2018-12-18T02:41:39.385Z,1.44
2018-12-18T02:44:07.824Z,1.50
2018-12-18T02:46:36.295Z,1.60
2018-12-18T02:49:04.736Z,1.63
2018-12-18T02:51:33.336Z,1.73
2018-12-18T02:54:01.794Z,1.81
2018-12-18T02:56:30.283Z,1.79
2018-12-18T02:58:58.780Z,1.80
2018-12-18T03:01:27.256Z,1.72
2018-12-18T03:03:55.812Z,1.74
2018-12-18T03:06:24.248Z,1.70
2018-12-18T03:08:52.846Z,1.70
2018-12-18T03:11:21.592Z,1.67
2018-12-18T03:13:50.120Z,1.62
2018-12-18T03:16:18.558Z,1.63
2018-12-18T03:18:48.252Z,1.64
2018-12-18T03:21:17.270Z,1.63
2018-12-18T03:23:45.752Z,1.66
2018-12-18T03:26:14.300Z,1.62
2018-12-18T03:28:43.739Z,1.56
2018-12-18T03:31:12.209Z,1.49
2018-12-18T03:33:40.817Z,1.61
2018-12-18T03:36:09.243Z,1.67
2018-12-18T03:38:37.690Z,1.71
2018-12-18T03:41:06.247Z,1.82
2018-12-18T03:43:34.713Z,1.88
2018-12-18T03:46:03.139Z,1.97
2018-12-18T03:48:31.585Z,1.90
2018-12-18T03:51:00.146Z,1.92
2018-12-18T03:53:28.608Z,1.92
2018-12-18T03:55:57.133Z,1.95
2018-12-18T03:58:25.583Z,1.97
2018-12-18T04:00:54.247Z,1.94
2018-12-18T04:03:22.701Z,1.95
2018-12-18T04:05:51.131Z,1.92
2018-12-18T04:08:19.574Z,1.89
2018-12-18T04:10:47.992Z,1.87
2018-12-18T04:13:16.430Z,1.86
2018-12-18T04:15:45.023Z,1.82
2018-12-18T04:18:13.480Z,1.84
2018-12-18T04:20:41.909Z,1.80
2018-12-18T04:23:10.356Z,1.74
2018-12-18T04:25:38.779Z,1.78
2018-12-18T04:28:07.237Z,1.75
2018-12-18T04:30:35.685Z,1.69
2018-12-18T04:33:04.255Z,1.72
2018-12-18T04:35:32.704Z,1.67
2018-12-18T04:38:01.166Z,1.68
2018-12-18T04:40:29.596Z,1.67
2018-12-18T04:42:58.088Z,1.65
2018-12-18T04:45:26.543Z,1.65
2018-12-18T04:47:55.003Z,1.58
2018-12-18T04:50:23.415Z,1.61
2018-12-18T04:52:51.862Z,1.61
2018-12-18T04:55:20.320Z,1.66
2018-12-18T04:57:48.783Z,1.63
2018-12-18T05:00:17.219Z,1.65
2018-12-18T05:02:45.672Z,1.67
2018-12-18T05:05:14.098Z,1.72
2018-12-18T05:07:42.552Z,1.74
2018-12-18T05:10:10.996Z,1.76
2018-12-18T05:12:39.859Z,1.77
2018-12-18T05:15:08.458Z,1.86
2018-12-18T05:17:36.900Z,1.84
2018-12-18T05:20:05.495Z,1.86
2018-12-18T05:22:33.940Z,1.90
2018-12-18T05:25:02.464Z,1.91
2018-12-18T05:27:30.898Z,1.92
2018-12-18T05:29:59.352Z,1.86
2018-12-18T05:32:27.821Z,1.81
2018-12-18T05:34:56.774Z,1.82
2018-12-18T05:37:25.335Z,1.91
2018-12-18T05:39:53.781Z,1.92
2018-12-18T05:42:22.186Z,1.90
2018-12-18T05:44:50.649Z,1.89
2018-12-18T05:47:19.063Z,1.83
2018-12-18T05:49:47.537Z,1.78
2018-12-18T05:52:15.946Z,1.80
2018-12-18T05:54:44.379Z,1.84
2018-12-18T05:57:12.803Z,1.82
2018-12-18T05:59:41.330Z,1.84
2018-12-18T06:02:09.759Z,1.83
2018-12-18T06:04:38.242Z,1.86
2018-12-18T06:07:06.671Z,1.85
2018-12-18T06:09:35.151Z,1.86
2018-12-18T06:12:03.631Z,1.91
2018-12-18T06:14:32.222Z,1.91
2018-12-18T06:17:00.663Z,1.97
2018-12-18T06:19:29.120Z,1.95
2018-12-18T06:21:57.572Z,1.96
2018-12-18T06:24:26.054Z,1.97
2018-12-18T06:26:54.496Z,1.97
2018-12-18T06:29:22.939Z,1.94
2018-12-18T06:31:51.355Z,2.01
2018-12-18T06:34:19.952Z,2.11
2018-12-18T06:36:48.378Z,2.17
2018-12-18T06:39:17.164Z,2.24
2018-12-18T06:41:45.583Z,2.24
2018-12-18T06:44:14.030Z,2.23
2018-12-18T06:46:42.496Z,2.24
2018-12-18T06:49:10.979Z,2.26
2018-12-18T06:51:39.571Z,2.21
2018-12-18T06:54:08.076Z,2.30
2018-12-18T06:56:36.535Z,2.27
2018-12-18T06:59:05.030Z,2.18
2018-12-18T07:01:33.465Z,2.22
2018-12-18T07:04:01.949Z,2.17
2018-12-18T07:06:30.371Z,2.13
2018-12-18T07:08:58.840Z,2.14
2018-12-18T07:11:27.274Z,2.05
2018-12-18T07:13:55.819Z,2.00
2018-12-18T07:16:24.325Z,2.08
2018-12-18T07:18:52.792Z,2.09
2018-12-18T07:21:21.224Z,2.07
2018-12-18T07:23:49.704Z,2.10
2018-12-18T07:26:18.156Z,2.19
2018-12-18T07:28:46.630Z,2.16
2018-12-18T07:31:15.103Z,2.22
2018-12-18T07:33:43.563Z,2.34
2018-12-18T07:36:11.996Z,2.29
2018-12-18T07:38:40.447Z,2.29
2018-12-18T07:41:08.874Z,2.37
2018-12-18T07:43:37.315Z,2.35
2018-12-18T07:46:05.923Z,2.33
2018-12-18T07:48:34.358Z,2.39
2018-12-18T07:51:02.819Z,2.40
2018-12-18T07:53:31.259Z,2.48
2018-12-18T07:56:00.340Z,2.59
2018-12-18T07:58:29.088Z,2.62
2018-12-18T08:00:57.641Z,2.73
2018-12-18T08:03:26.103Z,2.80
2018-12-18T08:05:54.613Z,2.64
2018-12-18T08:08:23.055Z,2.57
2018-12-18T08:10:51.623Z,2.54
2018-12-18T08:13:20.197Z,2.53
2018-12-18T08:15:48.703Z,2.54
2018-12-18T08:18:17.149Z,2.56
2018-12-18T08:20:46.558Z,2.66
2018-12-18T08:23:15.016Z,2.75
2018-12-18T08:25:43.506Z,2.79
2018-12-18T08:28:11.968Z,2.81
2018-12-18T08:30:40.504Z,2.87
2018-12-18T08:33:09.068Z,2.92
2018-12-18T08:35:37.541Z,2.99
2018-12-18T08:38:05.996Z,2.99
2018-12-18T08:40:34.457Z,3.10
2018-12-18T08:43:02.935Z,3.16
2018-12-18T08:45:31.414Z,3.30
2018-12-18T08:47:59.843Z,3.40
2018-12-18T08:50:28.349Z,3.47
2018-12-18T08:52:56.817Z,3.60
2018-12-18T08:55:25.348Z,3.56
2018-12-18T08:57:53.776Z,3.61
2018-12-18T09:00:22.234Z,3.62
2018-12-18T09:05:43.606Z,3.33
2018-12-18T09:11:04.924Z,3.26
2018-12-18T09:16:31.745Z,3.19
2018-12-18T09:19:00.276Z,3.14
2018-12-18T09:21:28.751Z,3.14
2018-12-18T09:23:57.238Z,3.16
2018-12-18T09:26:25.695Z,3.14
2018-12-18T09:28:54.116Z,3.00
2018-12-18T09:31:22.576Z,2.91
2018-12-18T09:33:51.020Z,2.79
2018-12-18T09:36:19.495Z,2.71
2018-12-18T09:38:53.341Z,2.67
2018-12-18T09:41:25.832Z,2.65
2018-12-18T09:43:58.444Z,2.64
2018-12-18T09:46:26.951Z,2.65
2018-12-18T09:48:55.398Z,2.64
2018-12-18T09:51:23.851Z,2.55
2018-12-18T09:53:52.287Z,2.60
2018-12-18T09:56:20.769Z,2.69
2018-12-18T09:58:49.232Z,2.79
2018-12-18T10:01:17.717Z,2.96
2018-12-18T10:03:46.180Z,3.16
2018-12-18T10:06:14.667Z,3.28
2018-12-18T10:08:43.095Z,3.23
2018-12-18T10:11:11.567Z,3.37
2018-12-18T10:13:40.043Z,3.59
2018-12-18T10:16:08.536Z,3.73
2018-12-18T10:18:36.967Z,3.75
2018-12-18T10:21:05.451Z,3.73
2018-12-18T10:23:33.896Z,3.81
2018-12-18T10:26:02.366Z,3.76
2018-12-18T10:28:30.804Z,3.71
2018-12-18T10:30:59.259Z,3.70
2018-12-18T10:33:27.719Z,3.67
2018-12-18T10:36:02.812Z,3.68
2018-12-18T10:38:26.745Z,3.71
2018-12-18T10:40:55.213Z,3.71
2018-12-18T10:43:23.780Z,3.69
2018-12-18T10:45:52.284Z,3.73
2018-12-18T10:48:20.728Z,3.74
2018-12-18T10:50:49.210Z,3.63
2018-12-18T10:53:17.661Z,3.53
2018-12-18T10:55:46.121Z,3.43
2018-12-18T10:58:14.569Z,3.49
2018-12-18T11:00:48.329Z,3.54
2018-12-18T11:03:16.937Z,3.49
2018-12-18T11:05:45.424Z,3.56
2018-12-18T11:08:13.871Z,3.57
2018-12-18T11:10:42.344Z,3.61
2018-12-18T11:13:16.043Z,3.67
2018-12-18T11:15:44.854Z,3.67
2018-12-18T11:18:13.547Z,3.66
2018-12-18T11:20:42.025Z,3.61
2018-12-18T11:23:10.493Z,3.47
2018-12-18T11:25:38.980Z,3.48
2018-12-18T11:28:07.444Z,3.60
2018-12-18T11:30:36.029Z,3.64
2018-12-18T11:33:04.480Z,3.69
2018-12-18T11:35:32.987Z,3.72
2018-12-18T11:38:01.425Z,3.80
2018-12-18T11:40:29.876Z,3.89
2018-12-18T11:42:58.369Z,3.83
2018-12-18T11:45:26.861Z,3.81
2018-12-18T11:47:55.379Z,3.76
2018-12-18T11:50:23.843Z,3.78
2018-12-18T11:52:52.292Z,3.82
2018-12-18T11:55:20.739Z,3.90
2018-12-18T11:57:49.248Z,3.89
2018-12-18T12:00:17.950Z,3.85
2018-12-18T12:02:46.473Z,3.81
2018-12-18T12:05:15.001Z,3.75
2018-12-18T12:07:43.508Z,3.67
2018-12-18T12:10:13.774Z,3.65
2018-12-18T12:12:44.882Z,3.62
2018-12-18T12:15:14.287Z,3.67
2018-12-18T12:17:42.933Z,3.67
2018-12-18T12:20:11.392Z,3.64
2018-12-18T12:22:39.852Z,3.70
2018-12-18T12:25:08.523Z,3.66
2018-12-18T12:27:42.165Z,3.66
2018-12-18T12:30:10.747Z,3.64
2018-12-18T12:32:39.215Z,3.67
2018-12-18T12:35:07.676Z,3.66
2018-12-18T12:37:36.142Z,3.76
2018-12-18T12:40:05.156Z,3.71
2018-12-18T12:42:33.664Z,3.65
2018-12-18T12:45:02.128Z,3.62
2018-12-18T12:47:30.639Z,3.62
2018-12-18T12:49:59.088Z,3.68
2018-12-18T12:52:27.584Z,3.68
2018-12-18T12:54:56.016Z,3.64
2018-12-18T12:57:24.615Z,3.66
2018-12-18T12:59:53.088Z,3.73
2018-12-18T13:02:21.568Z,3.77
2018-12-18T13:04:50.021Z,3.72
2018-12-18T13:07:18.528Z,3.70
2018-12-18T13:09:48.073Z,3.70
2018-12-18T13:12:16.560Z,3.67
2018-12-18T13:14:45.046Z,3.67
2018-12-18T13:17:13.524Z,3.67
2018-12-18T13:19:41.992Z,3.69
2018-12-18T13:22:10.487Z,3.70
2018-12-18T13:24:38.942Z,3.71
2018-12-18T13:27:07.628Z,3.63
2018-12-18T13:29:36.312Z,3.62
2018-12-18T13:32:06.240Z,3.49
2018-12-18T13:34:34.808Z,3.37
2018-12-18T13:37:03.292Z,3.31
2018-12-18T13:39:31.724Z,3.25
2018-12-18T13:42:00.252Z,3.27
2018-12-18T13:44:28.728Z,3.26
2018-12-18T13:46:57.224Z,3.19
2018-12-18T13:49:25.700Z,3.25
2018-12-18T13:51:54.197Z,3.31
2018-12-18T13:54:22.896Z,3.29
2018-12-18T13:56:51.408Z,3.29
2018-12-18T13:59:19.902Z,3.28
2018-12-18T14:01:48.343Z,3.30
2018-12-18T14:04:16.835Z,3.32
2018-12-18T14:06:49.628Z,3.28
2018-12-18T14:09:15.816Z,3.15
2018-12-18T14:11:44.275Z,3.22
2018-12-18T14:14:12.858Z,3.25
2018-12-18T14:16:41.305Z,3.28
2018-12-18T14:19:09.788Z,3.33
2018-12-18T14:21:38.493Z,3.37
2018-12-18T14:24:07.092Z,3.41
2018-12-18T14:26:35.565Z,3.38
2018-12-18T14:29:04.076Z,3.38
2018-12-18T14:31:32.528Z,3.43
2018-12-18T14:34:01.890Z,3.46
2018-12-18T14:36:31.012Z,3.51
2018-12-18T14:38:59.488Z,3.58
2018-12-18T14:41:28.059Z,3.62
2018-12-18T14:44:13.369Z,3.62
2018-12-18T14:46:41.792Z,3.65
2018-12-18T14:49:10.263Z,3.65
2018-12-18T14:51:38.780Z,3.55
2018-12-18T14:54:07.254Z,3.53
2018-12-18T14:56:35.688Z,3.53
2018-12-18T14:59:04.163Z,3.54
2018-12-18T15:01:32.627Z,3.53
2018-12-18T15:04:02.032Z,3.55
2018-12-18T15:06:31.668Z,3.45
2018-12-18T15:09:00.174Z,3.43
2018-12-18T15:11:28.644Z,3.39
2018-12-18T15:13:57.147Z,3.41
2018-12-18T15:16:25.584Z,3.39
2018-12-18T15:18:54.036Z,3.35
2018-12-18T15:21:22.480Z,3.29
2018-12-18T15:23:50.989Z,3.23
2018-12-18T15:26:19.449Z,3.17
2018-12-18T15:28:47.932Z,3.20
2018-12-18T15:31:16.386Z,3.18
2018-12-18T15:35:09.283Z,3.01
2018-12-18T15:37:37.962Z,2.91
2018-12-18T15:40:06.819Z,2.92
2018-12-18T15:42:35.319Z,2.86
2018-12-18T15:45:03.911Z,2.74
2018-12-18T15:47:32.438Z,2.59
2018-12-18T15:50:00.926Z,2.53
2018-12-18T15:52:29.378Z,2.52
2018-12-18T15:54:58.038Z,2.50
2018-12-18T15:57:26.526Z,2.51
2018-12-18T15:59:55.003Z,2.45
2018-12-18T16:02:24.324Z,2.46
2018-12-18T16:04:53.194Z,2.50
2018-12-18T16:07:21.856Z,2.53
2018-12-18T16:09:50.452Z,2.43
2018-12-18T16:12:18.971Z,2.42
2018-12-18T16:14:47.556Z,2.40
2018-12-18T16:17:16.079Z,2.41
2018-12-18T16:19:44.642Z,2.41
2018-12-18T16:22:13.100Z,2.42
2018-12-18T16:24:41.643Z,2.37
2018-12-18T16:27:10.123Z,2.38
2018-12-18T16:29:39.274Z,2.41
2018-12-18T16:32:07.886Z,2.41
2018-12-18T16:34:36.403Z,2.40
2018-12-18T16:37:04.916Z,2.45
2018-12-18T16:39:33.430Z,2.45
2018-12-18T16:42:01.968Z,2.52
2018-12-18T16:44:30.448Z,2.54
2018-12-18T16:46:58.876Z,2.55
2018-12-18T16:49:27.337Z,2.49
2018-12-18T16:51:55.924Z,2.45
2018-12-18T16:54:24.893Z,2.36
2018-12-18T16:56:54.284Z,2.39
2018-12-18T16:59:22.871Z,2.34
2018-12-18T17:01:51.393Z,2.32
2018-12-18T17:04:19.933Z,2.27
2018-12-18T17:06:48.432Z,2.29
2018-12-18T17:09:17.016Z,2.27
2018-12-18T17:11:45.464Z,2.30
2018-12-18T17:14:14.216Z,2.35
2018-12-18T17:16:42.688Z,2.33
2018-12-18T17:19:11.197Z,2.39
2018-12-18T17:21:39.640Z,2.41
2018-12-18T17:24:08.258Z,2.43
2018-12-18T17:26:36.707Z,2.42
2018-12-18T17:29:05.212Z,2.38
2018-12-18T17:31:35.520Z,2.35
2018-12-18T17:34:04.108Z,2.26
2018-12-18T17:36:32.783Z,2.25
2018-12-18T17:39:01.503Z,2.26
2018-12-18T17:41:30.030Z,2.26
2018-12-18T17:43:58.767Z,2.26
2018-12-18T17:46:27.198Z,2.24
2018-12-18T17:48:55.724Z,2.21
2018-12-18T17:51:24.252Z,2.31
2018-12-18T17:53:53.662Z,2.37
2018-12-18T17:56:22.143Z,2.35
2018-12-18T17:58:50.625Z,2.41
2018-12-18T18:01:19.245Z,2.41
2018-12-18T18:03:47.993Z,2.42
2018-12-18T18:06:16.678Z,2.47
2018-12-18T18:08:45.271Z,2.47
2018-12-18T18:11:14.332Z,2.47
2018-12-18T18:13:42.818Z,2.48
2018-12-18T18:17:40.453Z,2.51
2018-12-18T18:20:09.210Z,2.39
2018-12-18T18:22:38.085Z,2.39
2018-12-18T18:25:06.820Z,2.40
2018-12-18T18:27:35.320Z,2.41
2018-12-18T18:30:04.447Z,2.35
2018-12-18T18:32:32.932Z,2.38
2018-12-18T18:35:01.403Z,2.35
2018-12-18T18:37:29.947Z,2.34
2018-12-18T18:39:58.411Z,2.26
2018-12-18T18:42:26.865Z,2.24
2018-12-18T18:44:55.377Z,2.23
2018-12-18T18:47:23.820Z,2.24
2018-12-18T18:49:52.303Z,2.20
2018-12-18T18:52:20.732Z,2.23
2018-12-18T18:54:49.212Z,2.17
2018-12-18T18:57:19.026Z,2.11
2018-12-18T18:59:47.648Z,2.05
2018-12-18T19:02:16.073Z,2.03
2018-12-18T19:04:44.654Z,2.04
2018-12-18T19:07:13.120Z,2.11
2018-12-18T19:09:41.617Z,2.14
2018-12-18T19:12:10.057Z,2.19
2018-12-18T19:17:35.397Z,2.14
2018-12-18T19:20:04.296Z,2.14
2018-12-18T19:22:32.732Z,2.19
2018-12-18T19:25:01.209Z,2.16
2018-12-18T19:27:29.673Z,2.17
2018-12-18T19:29:58.145Z,2.13
2018-12-18T19:32:26.572Z,2.07
2018-12-18T19:34:55.036Z,1.97
2018-12-18T19:37:23.479Z,1.93
2018-12-18T19:39:52.269Z,1.96
2018-12-18T19:42:20.968Z,1.98
2018-12-18T19:44:50.079Z,2.02
2018-12-18T19:47:18.554Z,2.04
2018-12-18T19:49:47.076Z,2.06
2018-12-18T19:52:15.500Z,2.01
2018-12-18T19:54:44.383Z,2.01
2018-12-18T19:57:12.806Z,2.04
2018-12-18T19:59:41.982Z,2.08
2018-12-18T20:02:10.559Z,2.05
2018-12-18T20:04:39.047Z,2.05
2018-12-18T20:07:07.611Z,2.09
2018-12-18T20:09:36.101Z,2.07
2018-12-18T20:12:04.536Z,2.02
2018-12-18T20:14:33.270Z,1.96
2018-12-18T20:17:01.873Z,1.98
2018-12-18T20:19:30.353Z,1.93
2018-12-18T20:21:58.784Z,1.88
2018-12-18T20:24:27.227Z,1.76
2018-12-18T20:26:55.692Z,1.77
2018-12-18T20:29:24.135Z,1.73
2018-12-18T20:31:52.634Z,1.66
2018-12-18T20:34:21.073Z,1.63
2018-12-18T20:36:49.552Z,1.58
2018-12-18T20:39:17.988Z,1.39
2018-12-18T20:41:46.482Z,1.36
2018-12-18T20:44:14.973Z,1.36
2018-12-18T20:46:43.511Z,1.43
2018-12-18T20:49:11.943Z,1.40
2018-12-18T20:51:40.449Z,1.36
2018-12-18T20:54:08.872Z,1.44
2018-12-18T20:56:37.335Z,1.37
2018-12-18T20:59:05.800Z,1.31
2018-12-18T21:01:34.328Z,1.22
2018-12-18T21:04:02.863Z,1.08
2018-12-18T21:06:31.444Z,1.07
2018-12-18T21:09:00.085Z,1.18
2018-12-18T21:11:28.682Z,1.16
2018-12-18T21:13:57.267Z,1.20
2018-12-18T21:16:25.860Z,1.12
2018-12-18T21:18:54.435Z,1.02
2018-12-18T21:21:23.004Z,0.97
2018-12-18T21:23:51.579Z,0.97
2018-12-18T21:26:20.201Z,1.02
2018-12-18T21:28:48.872Z,0.96
2018-12-18T21:31:17.447Z,0.90
2018-12-18T21:33:45.999Z,0.87
2018-12-18T21:36:14.646Z,0.85
2018-12-18T21:38:43.212Z,0.80
2018-12-18T21:41:11.786Z,0.75
2018-12-18T21:43:40.331Z,0.68
2018-12-18T21:46:08.931Z,0.67
2018-12-18T21:48:38.319Z,0.61
2018-12-18T21:51:06.906Z,0.57
2018-12-18T21:53:35.452Z,0.55
2018-12-18T21:56:04.069Z,0.56
2018-12-18T21:58:32.599Z,0.53
2018-12-18T22:01:01.165Z,0.57
2018-12-18T22:03:29.723Z,0.49
2018-12-18T22:05:58.347Z,0.45
2018-12-18T22:08:26.871Z,0.46
2018-12-18T22:10:55.457Z,0.41
2018-12-18T22:13:24.012Z,0.43
2018-12-18T22:15:52.627Z,0.41
2018-12-18T22:18:21.184Z,0.39
2018-12-18T22:20:49.757Z,0.36
2018-12-18T22:23:18.296Z,0.33
2018-12-18T22:25:46.821Z,0.34
2018-12-18T22:28:15.395Z,0.36
2018-12-18T22:30:43.848Z,0.35
2018-12-18T22:33:12.312Z,0.36
2018-12-18T22:35:40.739Z,0.32
2018-12-18T22:38:09.186Z,0.31
2018-12-18T22:40:37.632Z,0.37
2018-12-18T22:43:06.090Z,0.37
2018-12-18T22:45:34.533Z,0.37
2018-12-18T22:48:02.995Z,0.28
2018-12-18T22:50:31.431Z,0.16
2018-12-18T22:52:59.882Z,0.16
2018-12-18T22:55:28.316Z,0.19
2018-12-18T22:57:56.760Z,0.18
2018-12-18T23:00:30.587Z,0.18
2018-12-18T23:02:59.183Z,0.26
2018-12-18T23:05:27.619Z,0.23
2018-12-18T23:07:56.065Z,0.21
2018-12-18T23:10:24.503Z,0.20
2018-12-18T23:12:52.971Z,0.15
2018-12-18T23:15:21.428Z,0.15
2018-12-18T23:17:49.877Z,0.12
2018-12-18T23:20:18.320Z,0.15
2018-12-18T23:22:46.770Z,0.13
2018-12-18T23:25:15.179Z,0.07
2018-12-18T23:27:43.629Z,0.05
2018-12-18T23:30:12.060Z,0.06
2018-12-18T23:32:40.507Z,0.06
2018-12-18T23:35:08.931Z,-0.02
2018-12-18T23:37:37.391Z,-0.04
2018-12-18T23:40:06.303Z,-0.13
2018-12-18T23:42:34.751Z,-0.13
2018-12-18T23:45:03.343Z,-0.11
2018-12-18T23:47:31.925Z,-0.10
2018-12-18T23:50:00.418Z,-0.14
2018-12-18T23:52:29.059Z,-0.17
2018-12-18T23:54:57.479Z,-0.22
2018-12-18T23:57:25.932Z,-0.29
2018-12-18T23:59:54.357Z,-0.27
